»·PEaware :: CGVZB KPDX-KBFI

CGVZB :: KPDX-KBFI

FLIGHT INFORMATION

Flight Status: Arrived
Operator: Unknown
More flights by this operator :: More flights under this callsign
Pilot: Alan S. (10569)
Aircraft: BEECH AIRCRAFT BARON
(BE58)
More flights by this aircraft type
Origin: KPDX Portland Intl
United States
Destination: KBFI Boeing Field/King Co Intl
United States
More flights between these airports :: More routes between these airports
Route: BTG OLM2
File this flight plan on PilotEdge
Remarks: CEEGEEVEECEEBEE twitch.tv / aerosimgaming
Altitude:
(Current/Filed)
10,000ft
Speed:
(Current/Filed)
170kts
Departed: 24-Jan-17 01:54 PM
Arrived: 24-Jan-17 02:53 PM
Distance/Time
Traveled:
122nm/0:59
Distance/Time
To Go:
Arrived

Flight Plot

Page will automatically refresh every two minutes.


Map Options




Map Legend


Flown Route
Filed Route
Departure Airport
Arrival Airport
Navaid (VOR, NDB)
Fix

Horizontal Profiles

Position Reports

Time Latitude Longitude Heading Altitude Ground
Speed
24-Jan-17 12:56 33.426660 -112.024080 32 1137ft 0kts
24-Jan-17 12:57 33.426660 -112.024080 32 1137ft 0kts
24-Jan-17 12:58 45.585941 -122.582500 297 32ft 0kts
24-Jan-17 12:59 45.585941 -122.582500 297 32ft 0kts
24-Jan-17 13:00 45.585941 -122.582500 297 32ft 0kts
24-Jan-17 13:01 45.585941 -122.582500 297 32ft 0kts
24-Jan-17 13:02 45.585941 -122.582500 297 32ft 0kts
24-Jan-17 13:03 45.585941 -122.582500 297 32ft 0kts
24-Jan-17 13:04 45.585941 -122.582500 297 32ft 0kts
24-Jan-17 13:05 45.585941 -122.582500 297 32ft 0kts
24-Jan-17 13:06 45.585941 -122.582500 297 32ft 0kts
24-Jan-17 13:07 45.585941 -122.582500 297 32ft 0kts
24-Jan-17 13:08 45.585941 -122.582500 297 32ft 0kts
24-Jan-17 13:09 45.585941 -122.582500 297 32ft 0kts
24-Jan-17 13:10 45.585941 -122.582500 297 32ft 0kts
24-Jan-17 13:11 45.585941 -122.582500 297 32ft 0kts
24-Jan-17 13:14 45.587336 -122.582724 209 32ft 0kts
24-Jan-17 13:15 45.587336 -122.582724 209 32ft 0kts
24-Jan-17 13:16 45.587336 -122.582724 209 32ft 0kts
24-Jan-17 13:17 45.587336 -122.582724 209 32ft 0kts
24-Jan-17 13:18 45.587336 -122.582724 209 32ft 0kts
24-Jan-17 13:19 45.587336 -122.582724 209 32ft 0kts
24-Jan-17 13:20 45.587336 -122.582724 209 32ft 0kts
24-Jan-17 13:21 45.587336 -122.582724 209 32ft 0kts
24-Jan-17 13:22 45.587336 -122.582724 209 32ft 0kts
24-Jan-17 13:23 45.587336 -122.582724 209 32ft 0kts
24-Jan-17 13:24 45.587336 -122.582724 209 32ft 0kts
24-Jan-17 13:25 45.587336 -122.582724 209 32ft 0kts
24-Jan-17 13:26 45.587336 -122.582724 209 32ft 0kts
24-Jan-17 13:27 45.587336 -122.582724 209 32ft 0kts
24-Jan-17 13:28 45.587336 -122.582724 209 32ft 0kts
24-Jan-17 13:29 45.587336 -122.582724 209 32ft 0kts
24-Jan-17 13:30 45.587336 -122.582724 209 32ft 0kts
24-Jan-17 13:31 45.587336 -122.582724 209 32ft 0kts
24-Jan-17 13:32 45.587336 -122.582724 209 32ft 0kts
24-Jan-17 13:33 45.587336 -122.582724 209 32ft 0kts
24-Jan-17 13:34 45.587336 -122.582724 209 32ft 0kts
24-Jan-17 13:35 45.587336 -122.582724 209 32ft 0kts
24-Jan-17 13:36 45.587336 -122.582724 209 32ft 0kts
24-Jan-17 13:37 45.587336 -122.582724 209 32ft 0kts
24-Jan-17 13:38 45.587336 -122.582724 209 32ft 0kts
24-Jan-17 13:39 45.587336 -122.582724 209 32ft 0kts
24-Jan-17 13:40 45.587336 -122.582724 209 32ft 0kts
24-Jan-17 13:41 45.588105 -122.581653 123 32ft 13kts
24-Jan-17 13:42 45.586081 -122.576478 118 32ft 16kts
24-Jan-17 13:43 45.583686 -122.570312 118 32ft 18kts
24-Jan-17 13:44 45.582726 -122.567361 62 32ft 0kts
24-Jan-17 13:45 45.582726 -122.567361 62 32ft 0kts
24-Jan-17 13:46 45.582726 -122.567361 62 32ft 0kts
24-Jan-17 13:47 45.582726 -122.567361 62 32ft 0kts
24-Jan-17 13:48 45.582726 -122.567361 62 32ft 0kts
24-Jan-17 13:49 45.582726 -122.567361 62 32ft 0kts
24-Jan-17 13:50 45.582726 -122.567361 62 32ft 0kts
24-Jan-17 13:51 45.582726 -122.567361 62 32ft 0kts
24-Jan-17 13:52 45.582726 -122.567361 62 32ft 0kts
24-Jan-17 13:53 45.582726 -122.567361 62 32ft 0kts
24-Jan-17 13:54 45.585408 -122.571454 298 32ft 73kts
24-Jan-17 13:55 45.601694 -122.608551 303 1281ft 125kts
24-Jan-17 13:56 45.617404 -122.652656 308 2667ft 133kts
24-Jan-17 13:57 45.651347 -122.651618 18 3783ft 132kts
24-Jan-17 13:58 45.685553 -122.633436 18 4887ft 132kts
24-Jan-17 13:59 45.719188 -122.612260 20 5932ft 132kts
24-Jan-17 14:00 45.752635 -122.590760 20 6934ft 133kts
24-Jan-17 14:01 45.786144 -122.599027 329 7900ft 130kts
24-Jan-17 14:02 45.820768 -122.611571 348 8816ft 129kts
24-Jan-17 14:03 45.855901 -122.620903 348 9680ft 129kts
24-Jan-17 14:04 45.894395 -122.631191 347 9980ft 160kts
24-Jan-17 14:05 45.939655 -122.643275 348 9971ft 167kts
24-Jan-17 14:06 45.985270 -122.655488 348 9971ft 168kts
24-Jan-17 14:07 46.031133 -122.667802 348 9971ft 168kts
24-Jan-17 14:08 46.076992 -122.680140 348 9971ft 168kts
24-Jan-17 14:09 46.121257 -122.692021 348 9974ft 168kts
24-Jan-17 14:10 46.167169 -122.704357 348 9973ft 169kts
24-Jan-17 14:11 46.213249 -122.716802 348 9973ft 169kts
24-Jan-17 14:12 46.259269 -122.728804 343 10000ft 166kts
24-Jan-17 14:13 46.306555 -122.738030 348 10020ft 177kts
24-Jan-17 14:14 46.356253 -122.744674 348 10019ft 181kts
24-Jan-17 14:15 46.406092 -122.752690 346 10015ft 181kts
24-Jan-17 14:16 46.455725 -122.763984 343 9992ft 182kts
24-Jan-17 14:17 46.505374 -122.776661 343 9992ft 181kts
24-Jan-17 14:18 46.555057 -122.789782 343 9992ft 182kts
24-Jan-17 14:19 46.605037 -122.803128 343 9992ft 183kts
24-Jan-17 14:20 46.655112 -122.816564 343 9992ft 184kts
24-Jan-17 14:21 46.705696 -122.830182 343 9992ft 185kts
24-Jan-17 14:22 46.756413 -122.843853 343 9992ft 186kts
24-Jan-17 14:23 46.807216 -122.857574 343 9997ft 186kts
24-Jan-17 14:24 46.858067 -122.871200 343 9989ft 185kts
24-Jan-17 14:25 46.908615 -122.884980 344 9995ft 184kts
24-Jan-17 14:26 46.958595 -122.898424 343 9994ft 182kts
24-Jan-17 14:27 47.008269 -122.912035 342 9993ft 182kts
24-Jan-17 14:28 47.058061 -122.925708 342 9992ft 183kts
24-Jan-17 14:29 47.107384 -122.939000 349 9987ft 186kts
24-Jan-17 14:30 47.137515 -122.882665 68 9992ft 204kts
24-Jan-17 14:31 47.157196 -122.804925 68 9991ft 205kts
24-Jan-17 14:32 47.180600 -122.730821 64 9991ft 206kts
24-Jan-17 14:33 47.202376 -122.653733 66 9992ft 206kts
24-Jan-17 14:34 47.242004 -122.605658 16 9993ft 196kts
24-Jan-17 14:35 47.290284 -122.576474 16 9992ft 196kts
24-Jan-17 14:36 47.339843 -122.546532 16 9992ft 197kts
24-Jan-17 14:37 47.388804 -122.516931 16 9992ft 197kts
24-Jan-17 14:38 47.436814 -122.488094 16 9775ft 183kts
24-Jan-17 14:39 47.483854 -122.470221 346 9103ft 178kts
24-Jan-17 14:40 47.531470 -122.482523 334 8427ft 179kts
24-Jan-17 14:41 47.578584 -122.505904 334 7602ft 183kts
24-Jan-17 14:42 47.619041 -122.547127 315 6809ft 178kts
24-Jan-17 14:43 47.658123 -122.592101 315 6053ft 179kts
24-Jan-17 14:44 47.697597 -122.636975 325 5278ft 183kts
24-Jan-17 14:45 47.723147 -122.587687 102 4297ft 195kts
24-Jan-17 14:46 47.706184 -122.516269 117 3810ft 177kts
24-Jan-17 14:47 47.687573 -122.448580 116 3200ft 175kts
24-Jan-17 14:48 47.653424 -122.406881 151 2605ft 157kts
24-Jan-17 14:49 47.616838 -122.376057 150 1770ft 142kts
24-Jan-17 14:50 47.587214 -122.351317 149 1195ft 112kts
24-Jan-17 14:51 47.562131 -122.329682 149 549ft 107kts
24-Jan-17 14:52 47.537608 -122.308887 150 35ft 92kts
24-Jan-17 14:53 47.527085 -122.299283 65 23ft 10kts
24-Jan-17 14:54 47.527818 -122.296713 314 23ft 5kts
24-Jan-17 14:55 47.620924 -122.379526 150 1865ft 145kts

Navigation Log

Ident Type
1. KPDX Airport
2. BTG Navaid
3. COUGA Fix
4. OLM Navaid
5. LACEE Fix
6. ARVAD Fix
7. FOURT Fix
8. KBFI Airport